createdAt,value
2019-03-04T00:00:55.113Z,99605.47
2019-03-04T00:03:25.715Z,99602.89
2019-03-04T00:05:56.200Z,99599.95
2019-03-04T00:08:26.653Z,99602.07
2019-03-04T00:10:57.141Z,99595.52
2019-03-04T00:13:27.596Z,99594.73
2019-03-04T00:15:58.005Z,99591.68
2019-03-04T00:18:28.513Z,99590.72
2019-03-04T00:20:58.943Z,99590.75
2019-03-04T00:23:29.392Z,99589.07
2019-03-04T00:25:59.810Z,99587.39
2019-03-04T00:28:30.338Z,99586.02
2019-03-04T00:31:00.772Z,99573.05
2019-03-04T00:33:31.418Z,99571.27
2019-03-04T00:36:01.826Z,99559.53
2019-03-04T00:38:32.354Z,99559.16
2019-03-04T00:41:02.772Z,99565.30
2019-03-04T00:43:33.215Z,99564.02
2019-03-04T00:46:03.640Z,99558.84
2019-03-04T00:48:34.192Z,99560.27
2019-03-04T00:51:04.596Z,99551.53
2019-03-04T00:53:35.043Z,99547.17
2019-03-04T00:56:05.442Z,99542.43
2019-03-04T00:58:35.901Z,99530.67
2019-03-04T01:01:06.324Z,99528.95
2019-03-04T01:03:36.774Z,99529.91
2019-03-04T01:06:07.193Z,99522.05
2019-03-04T01:08:37.643Z,99534.70
2019-03-04T01:11:09.219Z,99531.65
2019-03-04T01:13:39.745Z,99529.02
2019-03-04T01:16:10.165Z,99528.18
2019-03-04T01:18:40.694Z,99523.83
2019-03-04T01:21:11.116Z,99523.80
2019-03-04T01:23:41.636Z,99521.22
2019-03-04T01:26:12.061Z,99515.11
2019-03-04T01:28:42.515Z,99518.64
2019-03-04T01:31:12.992Z,99509.98
2019-03-04T01:33:43.443Z,99509.10
2019-03-04T01:36:13.865Z,99508.18
2019-03-04T01:38:44.710Z,99505.16
2019-03-04T01:41:15.105Z,99497.37
2019-03-04T01:43:45.574Z,99493.45
2019-03-04T01:46:16.985Z,99497.81
2019-03-04T01:48:47.595Z,99487.85
2019-03-04T01:51:18.036Z,99491.34
2019-03-04T01:53:49.562Z,99485.72
2019-03-04T01:56:19.985Z,99490.08
2019-03-04T01:58:50.511Z,99499.20
2019-03-04T02:01:20.914Z,99501.05
2019-03-04T02:03:51.370Z,99493.19
2019-03-04T02:06:21.802Z,99491.02
2019-03-04T02:08:52.336Z,99498.91
2019-03-04T02:11:22.876Z,99486.28
2019-03-04T02:13:53.410Z,99485.92
2019-03-04T02:16:23.841Z,99487.34
2019-03-04T02:18:54.357Z,99482.68
2019-03-04T02:21:24.764Z,99479.99
2019-03-04T02:23:55.205Z,99475.22
2019-03-04T02:26:25.703Z,99472.72
2019-03-04T02:28:56.158Z,99467.50
2019-03-04T02:31:26.566Z,99459.70
2019-03-04T02:33:57.025Z,99454.09
2019-03-04T02:36:27.439Z,99441.02
2019-03-04T02:38:57.898Z,99430.56
2019-03-04T02:41:28.322Z,99418.72
2019-03-04T02:43:58.819Z,99437.86
2019-03-04T02:46:29.262Z,99426.95
2019-03-04T02:48:59.780Z,99419.97
2019-03-04T02:51:30.254Z,99416.41
2019-03-04T02:54:00.693Z,99411.95
2019-03-04T02:56:31.110Z,99424.91
2019-03-04T02:59:01.637Z,99421.27
2019-03-04T03:01:32.074Z,99408.66
2019-03-04T03:04:02.521Z,99386.23
2019-03-04T03:06:33.084Z,99386.59
2019-03-04T03:09:04.536Z,99385.63
2019-03-04T03:11:36.220Z,99395.02
2019-03-04T03:14:06.640Z,99397.48
2019-03-04T03:16:37.138Z,99401.68
2019-03-04T03:19:07.680Z,99406.38
2019-03-04T03:21:38.111Z,99399.69
2019-03-04T03:24:08.567Z,99395.94
2019-03-04T03:26:40.064Z,99399.25
2019-03-04T03:29:10.513Z,99393.09
2019-03-04T03:31:40.928Z,99395.09
2019-03-04T03:34:11.383Z,99396.25
2019-03-04T03:36:41.847Z,99393.08
2019-03-04T03:39:12.291Z,99394.08
2019-03-04T03:41:42.774Z,99396.50
2019-03-04T03:44:13.317Z,99396.56
2019-03-04T03:46:43.745Z,99399.41
2019-03-04T03:49:14.194Z,99398.63
2019-03-04T03:51:44.595Z,99390.82
2019-03-04T03:54:15.053Z,99387.26
2019-03-04T03:56:45.466Z,99384.45
2019-03-04T03:59:15.927Z,99381.64
2019-03-04T04:01:46.351Z,99366.40
2019-03-04T04:04:17.288Z,99379.27
2019-03-04T04:06:47.692Z,99383.98
2019-03-04T04:09:18.211Z,99386.44
2019-03-04T04:11:48.610Z,99405.13
2019-03-04T04:14:19.070Z,99399.19
2019-03-04T04:16:49.546Z,99402.41
2019-03-04T04:19:20.001Z,99397.87
2019-03-04T04:21:50.415Z,99389.83
2019-03-04T04:24:21.953Z,99390.89
2019-03-04T04:26:52.447Z,99392.70
2019-03-04T04:29:22.917Z,99388.63
2019-03-04T04:31:53.327Z,99380.05
2019-03-04T04:34:23.781Z,99374.77
2019-03-04T04:36:54.207Z,99382.34
2019-03-04T04:39:25.307Z,99369.45
2019-03-04T04:41:55.784Z,99365.99
2019-03-04T04:44:26.251Z,99354.53
2019-03-04T04:46:56.680Z,99359.23
2019-03-04T04:49:27.121Z,99358.63
2019-03-04T04:51:57.612Z,99356.25
2019-03-04T04:54:28.062Z,99350.69
2019-03-04T04:56:58.463Z,99336.61
2019-03-04T04:59:28.897Z,99339.33
2019-03-04T05:01:59.377Z,99339.06
2019-03-04T05:04:30.190Z,99339.23
2019-03-04T05:07:00.675Z,99330.53
2019-03-04T05:09:31.115Z,99325.05
2019-03-04T05:12:01.536Z,99314.23
2019-03-04T05:14:32.053Z,99305.98
2019-03-04T05:17:02.536Z,99301.67
2019-03-04T05:19:33.058Z,99296.32
2019-03-04T05:22:03.501Z,99291.83
2019-03-04T05:24:33.955Z,99283.46
2019-03-04T05:27:05.445Z,99279.83
2019-03-04T05:29:35.903Z,99280.24
2019-03-04T05:32:06.393Z,99286.39
2019-03-04T05:34:36.818Z,99281.19
2019-03-04T05:37:07.502Z,99274.70
2019-03-04T05:39:37.958Z,99281.24
2019-03-04T05:42:08.380Z,99273.81
2019-03-04T05:44:38.933Z,99279.97
2019-03-04T05:47:09.424Z,99275.63
2019-03-04T05:49:39.974Z,99266.91
2019-03-04T05:52:10.414Z,99262.62
2019-03-04T05:54:40.861Z,99259.60
2019-03-04T05:57:11.645Z,99248.59
2019-03-04T05:59:43.910Z,99248.57
2019-03-04T06:02:14.487Z,99241.06
2019-03-04T06:04:44.966Z,99242.00
2019-03-04T06:07:19.978Z,99242.67
2019-03-04T06:09:50.510Z,99244.08
2019-03-04T06:12:20.989Z,99239.77
2019-03-04T06:14:51.483Z,99233.59
2019-03-04T06:17:21.950Z,99232.61
2019-03-04T06:19:52.418Z,99230.28
2019-03-04T06:22:22.865Z,99234.50
2019-03-04T06:24:53.388Z,99211.80
2019-03-04T06:27:23.826Z,99204.74
2019-03-04T06:29:54.291Z,99216.37
2019-03-04T06:32:26.421Z,99211.23
2019-03-04T06:34:57.368Z,99216.43
2019-03-04T06:37:27.845Z,99206.54
2019-03-04T06:39:58.354Z,99202.63
2019-03-04T06:42:29.003Z,99200.92
2019-03-04T06:44:59.452Z,99184.91
2019-03-04T06:47:29.903Z,99181.91
2019-03-04T06:50:00.372Z,99179.39
2019-03-04T06:52:30.891Z,99173.81
2019-03-04T06:55:07.548Z,99162.61
2019-03-04T06:57:38.047Z,99162.32
2019-03-04T07:00:17.014Z,99161.98
2019-03-04T07:02:47.680Z,99156.56
2019-03-04T07:05:24.603Z,99154.40
2019-03-04T07:07:56.093Z,99142.22
2019-03-04T07:10:28.455Z,99136.81
2019-03-04T07:12:58.949Z,99127.51
2019-03-04T07:15:29.577Z,99127.23
2019-03-04T07:18:00.167Z,99130.80
2019-03-04T07:20:30.788Z,99127.23
2019-03-04T07:23:04.016Z,99123.61
2019-03-04T07:25:34.479Z,99127.86
2019-03-04T07:28:08.425Z,99127.05
2019-03-04T07:30:47.375Z,99126.69
2019-03-04T07:33:17.924Z,99115.48
2019-03-04T07:35:48.866Z,99112.93
2019-03-04T07:38:22.585Z,99112.61
2019-03-04T07:40:55.657Z,99108.87
2019-03-04T07:43:37.925Z,99116.84
2019-03-04T07:46:08.527Z,99107.40
2019-03-04T07:48:40.683Z,99097.50
2019-03-04T07:51:20.457Z,99107.24
2019-03-04T07:53:57.256Z,99108.25
2019-03-04T07:56:34.235Z,99107.52
2019-03-04T07:59:05.854Z,99102.45
2019-03-04T08:01:43.867Z,99085.95
2019-03-04T08:04:14.631Z,99078.13
2019-03-04T08:06:50.275Z,99081.23
2019-03-04T08:09:26.739Z,99083.05
2019-03-04T08:12:17.276Z,99069.49
2019-03-04T08:15:08.313Z,99075.62
2019-03-04T08:17:39.330Z,99072.12
2019-03-04T08:20:09.832Z,99063.41
2019-03-04T08:22:40.379Z,99057.70
2019-03-04T08:25:11.933Z,99046.34
2019-03-04T08:27:54.470Z,99046.34
2019-03-04T08:30:42.833Z,99042.86
2019-03-04T08:33:13.363Z,99043.71
2019-03-04T08:35:43.839Z,99045.48
2019-03-04T08:38:29.612Z,99036.75
2019-03-04T08:41:18.269Z,99028.08
2019-03-04T08:44:06.291Z,99021.52
2019-03-04T08:46:51.861Z,99026.72
2019-03-04T08:49:40.742Z,99011.83
2019-03-04T08:52:17.378Z,98994.63
2019-03-04T08:55:07.607Z,98989.47
2019-03-04T08:57:38.188Z,98984.27
2019-03-04T09:00:26.100Z,98972.47
2019-03-04T09:02:56.542Z,98962.30
2019-03-04T09:05:36.234Z,98958.49
2019-03-04T09:08:12.914Z,98967.59
2019-03-04T09:10:49.698Z,98977.27
2019-03-04T09:13:38.402Z,98966.70
2019-03-04T09:16:26.475Z,98957.23
2019-03-04T09:18:56.974Z,98952.48
2019-03-04T09:21:42.669Z,98948.69
2019-03-04T09:24:23.791Z,98939.25
2019-03-04T09:26:54.257Z,98927.81
2019-03-04T09:29:30.810Z,98920.17
2019-03-04T09:32:18.746Z,98917.88
2019-03-04T09:35:10.119Z,98924.52
2019-03-04T09:37:42.145Z,98914.47
2019-03-04T09:40:32.044Z,98908.12
2019-03-04T09:43:21.099Z,98916.54
2019-03-04T09:45:51.631Z,98906.86
2019-03-04T09:48:31.192Z,98904.43
2019-03-04T09:51:07.756Z,98898.95
2019-03-04T09:53:50.841Z,98895.68
2019-03-04T09:56:27.245Z,98887.45
2019-03-04T09:59:15.493Z,98859.73
2019-03-04T10:01:49.574Z,98860.27
2019-03-04T10:04:38.903Z,98853.23
2019-03-04T10:07:33.316Z,98854.59
2019-03-04T10:10:33.219Z,98854.33
2019-03-04T10:13:27.149Z,98845.33
2019-03-04T10:16:04.602Z,98845.45
2019-03-04T10:18:54.593Z,98839.27
2019-03-04T10:21:59.774Z,98840.00
2019-03-04T10:24:48.830Z,98832.53
2019-03-04T10:27:31.508Z,98818.42
2019-03-04T10:30:11.371Z,98832.57
2019-03-04T10:32:57.936Z,98835.34
2019-03-04T10:35:51.335Z,98832.23
2019-03-04T10:38:32.928Z,98819.84
2019-03-04T10:41:28.191Z,98823.22
2019-03-04T10:44:37.835Z,98812.03
2019-03-04T10:47:06.038Z,98803.61
2019-03-04T10:49:38.441Z,98804.06
2019-03-04T10:52:10.436Z,98805.80
2019-03-04T10:54:42.359Z,98806.94
2019-03-04T10:57:12.956Z,98812.37
2019-03-04T10:59:44.718Z,98804.77
2019-03-04T11:02:15.630Z,98789.50
2019-03-04T11:04:47.421Z,98787.30
2019-03-04T11:07:18.490Z,98784.05
2019-03-04T11:09:49.010Z,98785.22
2019-03-04T11:12:21.146Z,98781.89
2019-03-04T11:14:54.057Z,98786.07
2019-03-04T11:17:25.611Z,98789.27
2019-03-04T11:19:56.136Z,98783.27
2019-03-04T11:22:26.638Z,98787.23
2019-03-04T11:24:58.318Z,98776.30
2019-03-04T11:27:30.729Z,98786.08
2019-03-04T11:30:03.014Z,98783.72
2019-03-04T11:32:34.794Z,98774.88
2019-03-04T11:35:10.169Z,98761.63
2019-03-04T11:37:41.606Z,98756.14
2019-03-04T11:40:25.843Z,98752.60
2019-03-04T11:42:56.908Z,98738.22
2019-03-04T11:45:30.111Z,98738.34
2019-03-04T11:48:01.557Z,98728.59
2019-03-04T11:50:35.242Z,98732.07
2019-03-04T11:53:08.769Z,98722.35
2019-03-04T11:55:40.370Z,98715.76
2019-03-04T11:58:12.500Z,98714.38
2019-03-04T12:00:59.445Z,98699.56
2019-03-04T12:03:29.935Z,98698.52
2019-03-04T12:06:02.041Z,98694.62
2019-03-04T12:08:34.565Z,98686.33
2019-03-04T12:11:08.725Z,98691.75
2019-03-04T12:13:40.404Z,98688.08
2019-03-04T12:16:10.936Z,98674.45
2019-03-04T12:18:41.440Z,98663.73
2019-03-04T12:21:15.401Z,98645.22
2019-03-04T12:23:46.117Z,98630.33
2019-03-04T12:26:18.590Z,98614.13
2019-03-04T12:28:52.438Z,98593.78
2019-03-04T12:31:24.624Z,98592.79
2019-03-04T12:33:56.722Z,98584.73
2019-03-04T12:36:29.695Z,98568.25
2019-03-04T12:39:02.650Z,98583.08
2019-03-04T12:41:36.187Z,98590.87
2019-03-04T12:44:07.013Z,98588.70
2019-03-04T12:46:37.529Z,98578.67
2019-03-04T12:49:09.171Z,98581.84
2019-03-04T12:51:40.779Z,98573.40
2019-03-04T12:54:11.289Z,98552.25
2019-03-04T12:56:43.685Z,98558.68
2019-03-04T12:59:14.720Z,98546.55
2019-03-04T13:01:46.745Z,98551.59
2019-03-04T13:04:17.432Z,98547.04
2019-03-04T13:06:47.890Z,98537.53
2019-03-04T13:09:19.357Z,98551.36
2019-03-04T13:11:49.897Z,98539.22
2019-03-04T13:14:21.351Z,98524.34
2019-03-04T13:16:53.376Z,98526.09
2019-03-04T13:19:24.347Z,98520.77
2019-03-04T13:21:55.849Z,98518.79
2019-03-04T13:24:26.289Z,98524.10
2019-03-04T13:26:57.499Z,98511.41
2019-03-04T13:29:27.920Z,98509.63
2019-03-04T13:31:58.786Z,98500.91
2019-03-04T13:34:29.423Z,98497.13
2019-03-04T13:36:59.958Z,98494.46
2019-03-04T13:39:30.561Z,98506.36
2019-03-04T13:42:02.104Z,98493.58
2019-03-04T13:44:32.990Z,98502.27
2019-03-04T13:47:07.083Z,98496.98
2019-03-04T13:49:37.591Z,98496.36
2019-03-04T13:52:08.319Z,98503.73
2019-03-04T13:54:38.742Z,98503.83
2019-03-04T13:57:10.013Z,98485.57
2019-03-04T13:59:40.561Z,98496.55
2019-03-04T14:02:12.530Z,98492.79
2019-03-04T14:04:44.689Z,98482.48
2019-03-04T14:07:15.227Z,98486.34
2019-03-04T14:09:47.269Z,98487.67
2019-03-04T14:12:19.346Z,98493.02
2019-03-04T14:14:50.216Z,98480.11
2019-03-04T14:17:20.750Z,98483.86
2019-03-04T14:19:51.247Z,98484.28
2019-03-04T14:22:21.852Z,98492.75
2019-03-04T14:24:52.283Z,98496.00
2019-03-04T14:27:22.796Z,98501.61
2019-03-04T14:29:53.451Z,98493.68
2019-03-04T14:32:26.141Z,98487.98
2019-03-04T14:34:57.179Z,98490.98
2019-03-04T14:37:35.432Z,98479.75
2019-03-04T14:40:32.661Z,98478.25
2019-03-04T14:43:10.625Z,98470.74
2019-03-04T14:45:41.057Z,98473.01
2019-03-04T14:48:11.521Z,98478.91
2019-03-04T14:50:42.170Z,98480.62
2019-03-04T14:53:12.638Z,98482.30
2019-03-04T14:55:43.239Z,98477.95
2019-03-04T14:58:13.712Z,98490.66
2019-03-04T15:00:51.589Z,98477.02
2019-03-04T15:03:23.837Z,98488.48
2019-03-04T15:05:54.264Z,98499.59
2019-03-04T15:08:24.800Z,98498.23
2019-03-04T15:10:55.225Z,98499.84
2019-03-04T15:13:25.682Z,98506.29
2019-03-04T15:16:01.658Z,98518.25
2019-03-04T15:18:29.341Z,98521.00
2019-03-04T15:20:59.772Z,98515.13
2019-03-04T15:23:30.392Z,98521.50
2019-03-04T15:26:00.830Z,98514.13
2019-03-04T15:28:31.350Z,98520.19
2019-03-04T15:31:05.268Z,98515.77
2019-03-04T15:33:37.732Z,98517.41
2019-03-04T15:36:08.161Z,98507.98
2019-03-04T15:38:38.635Z,98510.96
2019-03-04T15:41:10.522Z,98504.73
2019-03-04T15:43:43.494Z,98521.36
2019-03-04T15:46:16.216Z,98514.45
2019-03-04T15:48:46.918Z,98536.56
2019-03-04T15:51:17.916Z,98530.02
2019-03-04T15:53:50.328Z,98520.98
2019-03-04T15:56:20.741Z,98538.63
2019-03-04T15:58:51.832Z,98546.21
2019-03-04T16:01:22.680Z,98543.71
2019-03-04T16:03:53.589Z,98545.22
2019-03-04T16:06:24.891Z,98545.05
2019-03-04T16:08:57.104Z,98553.03
2019-03-04T16:11:27.647Z,98558.05
2019-03-04T16:13:59.677Z,98554.56
2019-03-04T16:16:30.620Z,98565.56
2019-03-04T16:19:01.169Z,98558.23
2019-03-04T16:21:32.249Z,98560.42
2019-03-04T16:24:03.255Z,98557.48
2019-03-04T16:26:34.864Z,98551.89
2019-03-04T16:29:05.729Z,98559.80
2019-03-04T16:31:36.309Z,98556.85
2019-03-04T16:34:06.850Z,98557.73
2019-03-04T16:36:37.463Z,98554.36
2019-03-04T16:39:10.261Z,98556.56
2019-03-04T16:41:41.694Z,98543.44
2019-03-04T16:44:17.057Z,98545.75
2019-03-04T16:46:48.528Z,98548.45
2019-03-04T16:49:19.194Z,98542.78
2019-03-04T16:51:50.349Z,98542.44
2019-03-04T16:54:20.919Z,98547.66
2019-03-04T16:56:51.465Z,98545.95
2019-03-04T16:59:22.025Z,98543.00
2019-03-04T17:01:53.522Z,98541.72
2019-03-04T17:04:24.159Z,98536.52
2019-03-04T17:06:55.884Z,98534.84
2019-03-04T17:09:26.483Z,98522.17
2019-03-04T17:11:57.385Z,98530.03
2019-03-04T17:14:29.179Z,98535.31
2019-03-04T17:17:00.073Z,98528.34
2019-03-04T17:19:31.933Z,98529.26
2019-03-04T17:22:02.603Z,98533.09
2019-03-04T17:24:35.650Z,98523.06
2019-03-04T17:27:08.683Z,98530.49
2019-03-04T17:29:40.116Z,98539.63
2019-03-04T17:32:11.014Z,98525.50
2019-03-04T17:34:41.560Z,98525.45
2019-03-04T17:37:12.838Z,98526.75
2019-03-04T17:39:43.869Z,98524.50
2019-03-04T17:42:14.572Z,98523.64
2019-03-04T17:44:45.087Z,98538.03
2019-03-04T17:47:15.595Z,98521.89
2019-03-04T17:49:46.213Z,98528.55
2019-03-04T17:52:16.693Z,98519.75
2019-03-04T17:54:47.151Z,98526.75
2019-03-04T17:57:17.861Z,98529.30
2019-03-04T17:59:48.395Z,98523.13
2019-03-04T18:02:19.068Z,98530.17
2019-03-04T18:04:49.727Z,98531.97
2019-03-04T18:07:20.219Z,98528.95
2019-03-04T18:09:50.716Z,98524.16
2019-03-04T18:12:53.292Z,98527.64
2019-03-04T18:16:15.831Z,98537.34
2019-03-04T18:18:53.862Z,98536.95
2019-03-04T18:21:24.438Z,98546.58
2019-03-04T18:23:54.942Z,98546.95
2019-03-04T18:26:31.674Z,98553.09
2019-03-04T18:29:23.094Z,98534.84
2019-03-04T18:32:08.803Z,98535.67
2019-03-04T18:34:42.561Z,98538.77
2019-03-04T18:37:21.886Z,98537.06
2019-03-04T18:39:58.153Z,98535.80
2019-03-04T18:42:34.844Z,98527.94
2019-03-04T18:45:14.241Z,98522.72
2019-03-04T18:48:00.401Z,98527.97
2019-03-04T18:50:30.921Z,98536.67
2019-03-04T18:53:01.841Z,98533.97
2019-03-04T18:55:33.357Z,98542.70
2019-03-04T18:58:04.161Z,98548.31
2019-03-04T19:00:34.673Z,98584.09
2019-03-04T19:03:05.291Z,98612.46
2019-03-04T19:05:36.783Z,98654.08
2019-03-04T19:08:07.325Z,98645.84
2019-03-04T19:10:37.806Z,98635.38
2019-03-04T19:13:08.352Z,98630.59
2019-03-04T19:15:38.801Z,98630.59
2019-03-04T19:18:09.373Z,98635.36
2019-03-04T19:20:39.901Z,98646.64
2019-03-04T19:23:10.558Z,98655.30
2019-03-04T19:25:41.032Z,98660.96
2019-03-04T19:28:11.578Z,98665.70
2019-03-04T19:31:18.496Z,98677.45
2019-03-04T19:33:51.293Z,98680.05
2019-03-04T19:36:23.249Z,98708.28
2019-03-04T19:38:55.894Z,98705.63
2019-03-04T19:41:27.109Z,98710.40
2019-03-04T19:43:57.547Z,98739.02
2019-03-04T19:46:28.032Z,98741.55
2019-03-04T19:48:58.581Z,98771.47
2019-03-04T19:51:29.458Z,98738.36
2019-03-04T19:54:06.352Z,98759.03
2019-03-04T19:56:38.756Z,98747.51
2019-03-04T19:59:09.466Z,98743.94
2019-03-04T20:01:40.346Z,98742.44
2019-03-04T20:04:12.634Z,98757.16
2019-03-04T20:06:43.122Z,98758.86
2019-03-04T20:09:13.737Z,98764.45
2019-03-04T20:11:44.230Z,98795.66
2019-03-04T20:14:15.165Z,98784.31
2019-03-04T20:16:47.013Z,98807.14
2019-03-04T20:19:17.521Z,98777.14
2019-03-04T20:21:47.945Z,98779.63
2019-03-04T20:24:18.535Z,98792.52
2019-03-04T20:26:49.015Z,98795.08
2019-03-04T20:29:19.523Z,98781.98
2019-03-04T20:31:50.009Z,98775.36
2019-03-04T20:34:20.742Z,98797.44
2019-03-04T20:36:51.253Z,98790.47
2019-03-04T20:39:21.852Z,98796.00
2019-03-04T20:41:52.352Z,98797.70
2019-03-04T20:44:22.876Z,98805.89
2019-03-04T20:46:53.441Z,98802.36
2019-03-04T20:49:24.042Z,98818.70
2019-03-04T20:51:55.547Z,98820.66
2019-03-04T20:54:26.052Z,98812.36
2019-03-04T20:56:56.673Z,98824.73
2019-03-04T20:59:27.177Z,98827.26
2019-03-04T21:01:57.746Z,98821.88
2019-03-04T21:04:41.250Z,98827.80
2019-03-04T21:07:13.993Z,98833.38
2019-03-04T21:09:45.129Z,98834.53
2019-03-04T21:12:15.657Z,98834.89
2019-03-04T21:14:46.229Z,98834.34
2019-03-04T21:17:16.718Z,98838.14
2019-03-04T21:19:47.247Z,98852.84
2019-03-04T21:22:17.746Z,98856.26
2019-03-04T21:24:48.275Z,98853.22
2019-03-04T21:27:18.762Z,98860.30
2019-03-04T21:30:16.607Z,98869.42
2019-03-04T21:32:47.280Z,98873.52
2019-03-04T21:35:36.979Z,98878.06
2019-03-04T21:38:07.541Z,98873.14
2019-03-04T21:40:43.931Z,98882.39
2019-03-04T21:43:18.664Z,98887.23
2019-03-04T21:46:07.293Z,98896.38
2019-03-04T21:48:43.705Z,98899.89
2019-03-04T21:51:38.285Z,98901.94
2019-03-04T21:54:07.457Z,98901.53
2019-03-04T21:57:00.254Z,98915.35
2019-03-04T21:59:30.753Z,98916.28
2019-03-04T22:02:23.198Z,98929.25
2019-03-04T22:04:54.742Z,98920.08
2019-03-04T22:07:25.278Z,98933.54
2019-03-04T22:09:55.727Z,98937.32
2019-03-04T22:12:26.245Z,98936.41
2019-03-04T22:14:56.802Z,98942.91
2019-03-04T22:17:27.337Z,98949.87
2019-03-04T22:19:57.756Z,98948.55
2019-03-04T22:22:28.342Z,98951.55
2019-03-04T22:25:16.425Z,98953.36
2019-03-04T22:28:14.006Z,98962.92
2019-03-04T22:30:53.141Z,98955.16
2019-03-04T22:33:25.074Z,98962.56
2019-03-04T22:36:06.124Z,98966.08
2019-03-04T22:38:39.830Z,98971.34
2019-03-04T22:41:10.659Z,98972.66
2019-03-04T22:43:41.173Z,98974.38
2019-03-04T22:46:11.598Z,98976.53
2019-03-04T22:48:42.214Z,98974.78
2019-03-04T22:51:13.684Z,98974.38
2019-03-04T22:53:45.201Z,98975.31
2019-03-04T22:56:16.714Z,98978.33
2019-03-04T22:58:47.211Z,98980.93
2019-03-04T23:01:26.926Z,98987.02
2019-03-04T23:04:00.527Z,98984.45
2019-03-04T23:06:36.992Z,98985.30
2019-03-04T23:09:10.706Z,98982.70
2019-03-04T23:11:44.695Z,98995.76
2019-03-04T23:14:18.541Z,98995.28
2019-03-04T23:16:49.024Z,98991.36
2019-03-04T23:19:19.480Z,98991.33
2019-03-04T23:21:49.981Z,98999.12
2019-03-04T23:24:20.442Z,98999.98
2019-03-04T23:26:50.936Z,98990.45
2019-03-04T23:29:21.402Z,98990.83
2019-03-04T23:31:51.830Z,98990.45
2019-03-04T23:34:23.454Z,98997.36
2019-03-04T23:36:53.872Z,98992.57
2019-03-04T23:39:24.331Z,98989.91
2019-03-04T23:41:54.753Z,98992.12
2019-03-04T23:44:25.198Z,98988.70
2019-03-04T23:46:55.693Z,98993.48
2019-03-04T23:49:26.136Z,98990.02
2019-03-04T23:51:56.537Z,99002.99
2019-03-04T23:54:26.985Z,98995.67
2019-03-04T23:56:57.410Z,98995.23
2019-03-04T23:59:28.023Z,99001.34
